Time;durP1;ratioP1;P1;durP2;ratioP2;P2;SDS_P1;SDS_P2;PMS_P1;PMS_P2;Temp;Humidity;BMP_temperature;BMP_pressure;BME280_temperature;BME280_humidity;BME280_pressure;Samples;Min_cycle;Max_cycle;Signal;HPM_P1;HPM_P2
2024/01/16 00:01:08;;;;;;;13.50;2.78;;;22.00;86.10;;;;;;5052124;28;20044;-83
2024/01/16 00:03:36;;;;;;;14.93;2.42;;;21.90;86.20;;;;;;5052329;28;20167;-81
2024/01/16 00:06:04;;;;;;;17.38;2.67;;;21.90;86.30;;;;;;5052153;28;20068;-81
2024/01/16 00:08:32;;;;;;;8.60;2.10;;;21.80;86.40;;;;;;5051642;28;20052;-83
2024/01/16 00:11:01;;;;;;;11.25;2.40;;;21.80;86.50;;;;;;5055926;28;20020;-81
2024/01/16 00:13:31;;;;;;;12.70;2.30;;;21.80;86.70;;;;;;5055782;28;20029;-81
2024/01/16 00:15:59;;;;;;;13.82;2.85;;;21.80;86.80;;;;;;5054368;28;20493;-83
2024/01/16 00:18:27;;;;;;;12.23;2.40;;;21.80;87.10;;;;;;5055984;28;20043;-82
2024/01/16 00:20:55;;;;;;;14.80;3.08;;;21.90;87.20;;;;;;5055872;28;20036;-83
2024/01/16 00:23:23;;;;;;;15.27;2.42;;;21.90;87.20;;;;;;5055683;28;20021;-82
2024/01/16 00:25:50;;;;;;;14.25;3.05;;;21.90;87.30;;;;;;5037587;28;20025;-81
2024/01/16 00:28:19;;;;;;;16.05;2.63;;;21.90;87.60;;;;;;5055602;28;20380;-82
2024/01/16 00:30:51;;;;;;;12.18;2.30;;;22.00;87.70;;;;;;5055413;28;20143;-82
2024/01/16 00:33:19;;;;;;;12.73;3.03;;;22.10;87.60;;;;;;5055570;28;20383;-85
2024/01/16 00:35:47;;;;;;;12.57;2.50;;;22.10;87.50;;;;;;5055137;28;20055;-81
2024/01/16 00:38:15;;;;;;;10.90;2.35;;;22.10;87.20;;;;;;5055539;28;20033;-81
2024/01/16 00:40:43;;;;;;;9.65;2.38;;;22.10;87.00;;;;;;5055259;28;20041;-81
2024/01/16 00:43:11;;;;;;;12.57;2.20;;;22.10;86.70;;;;;;5055371;28;20021;-82
2024/01/16 00:45:40;;;;;;;10.43;2.35;;;22.20;86.70;;;;;;5055363;28;20025;-81
2024/01/16 00:48:10;;;;;;;10.85;2.45;;;22.10;86.60;;;;;;5055336;28;20025;-82
2024/01/16 00:50:39;;;;;;;14.00;2.72;;;22.10;86.70;;;;;;5055351;28;20025;-83
2024/01/16 00:53:08;;;;;;;13.95;2.70;;;22.10;86.70;;;;;;5037324;28;20227;-81
2024/01/16 00:55:36;;;;;;;14.10;2.22;;;22.20;86.70;;;;;;5054913;28;20033;-84
2024/01/16 00:58:06;;;;;;;12.82;2.22;;;22.20;86.60;;;;;;5054922;28;20025;-82
2024/01/16 01:00:34;;;;;;;10.88;2.80;;;22.20;86.70;;;;;;5054894;28;20373;-82
2024/01/16 01:03:06;;;;;;;9.05;2.45;;;22.20;86.70;;;;;;5055237;28;20028;-80
2024/01/16 01:05:34;;;;;;;8.18;2.20;;;22.20;86.60;;;;;;5054823;28;20024;-80
2024/01/16 01:08:01;;;;;;;11.07;2.10;;;22.20;86.60;;;;;;5054227;28;20033;-80
2024/01/16 01:10:29;;;;;;;10.88;2.58;;;22.20;86.70;;;;;;5054827;28;20036;-81
2024/01/16 01:12:57;;;;;;;13.77;2.72;;;22.30;86.70;;;;;;5054759;28;20021;-80
2024/01/16 01:15:26;;;;;;;16.58;2.60;;;22.30;86.70;;;;;;5054595;28;20407;-80
2024/01/16 01:17:54;;;;;;;12.95;2.70;;;22.30;86.70;;;;;;5054619;28;20021;-81
2024/01/16 01:20:24;;;;;;;15.75;2.35;;;22.30;86.60;;;;;;5054039;28;20088;-81
2024/01/16 01:22:52;;;;;;;13.68;2.50;;;22.30;86.60;;;;;;5054553;28;20111;-81
2024/01/16 01:25:21;;;;;;;22.15;3.75;;;22.30;86.50;;;;;;5054064;28;20063;-80
2024/01/16 01:27:50;;;;;;;14.23;2.47;;;22.30;86.30;;;;;;5054365;28;20017;-80
2024/01/16 01:30:18;;;;;;;11.90;2.60;;;22.40;86.50;;;;;;5054601;28;20052;-79
2024/01/16 01:32:53;;;;;;;10.05;1.95;;;22.30;85.80;;;;;;5054419;28;20052;-80
2024/01/16 01:35:21;;;;;;;13.77;2.20;;;22.30;85.90;;;;;;5054151;28;20499;-80
2024/01/16 01:37:49;;;;;;;9.10;2.10;;;22.30;85.50;;;;;;5054250;28;20025;-79
2024/01/16 01:40:19;;;;;;;6.68;1.70;;;22.30;85.60;;;;;;5054362;28;20472;-80
2024/01/16 01:42:48;;;;;;;11.27;2.15;;;22.30;85.70;;;;;;5054291;28;20056;-81
2024/01/16 01:45:16;;;;;;;10.80;2.45;;;22.30;85.80;;;;;;5054140;28;20025;-79
2024/01/16 01:47:44;;;;;;;12.75;2.20;;;22.30;85.70;;;;;;5054074;28;20029;-79
2024/01/16 01:50:14;;;;;;;8.95;1.95;;;22.20;85.60;;;;;;5053865;28;20531;-79
2024/01/16 01:52:50;;;;;;;7.45;1.70;;;22.20;85.80;;;;;;5054037;28;20055;-80
2024/01/16 01:55:18;;;;;;;9.45;2.10;;;22.20;85.90;;;;;;5052399;28;20056;-81
2024/01/16 01:57:47;;;;;;;6.05;1.80;;;22.30;86.00;;;;;;5053813;28;20060;-80
2024/01/16 02:00:17;;;;;;;11.10;2.30;;;22.20;85.90;;;;;;5053899;28;20120;-80
2024/01/16 02:02:47;;;;;;;8.98;2.00;;;22.20;85.80;;;;;;5053910;28;20586;-81
2024/01/16 02:05:17;;;;;;;7.75;1.90;;;22.20;85.90;;;;;;5053762;28;20059;-80
2024/01/16 02:07:46;;;;;;;8.82;2.28;;;22.20;85.90;;;;;;5053676;28;20564;-81
2024/01/16 02:10:15;;;;;;;7.47;1.85;;;22.20;86.00;;;;;;5053679;28;20033;-80
2024/01/16 02:12:44;;;;;;;12.77;2.47;;;22.30;86.10;;;;;;5053735;28;20593;-80
2024/01/16 02:15:13;;;;;;;11.68;2.33;;;22.30;86.30;;;;;;5053623;28;20041;-82
2024/01/16 02:17:41;;;;;;;14.25;3.38;;;22.30;86.40;;;;;;5053556;28;20033;-80
2024/01/16 02:20:11;;;;;;;12.45;2.78;;;22.30;86.50;;;;;;5053497;28;20104;-80
2024/01/16 02:22:42;;;;;;;12.73;2.60;;;22.40;86.40;;;;;;5035609;28;20476;-81
2024/01/16 02:25:11;;;;;;;12.00;2.00;;;22.50;86.40;;;;;;5053032;28;20087;-81
2024/01/16 02:27:39;;;;;;;13.35;2.50;;;22.50;86.20;;;;;;5052599;28;20032;-80
2024/01/16 02:30:09;;;;;;;14.48;2.45;;;22.60;86.10;;;;;;5052277;28;20119;-80
2024/01/16 02:32:38;;;;;;;13.98;2.50;;;22.70;86.00;;;;;;5051306;28;20032;-79
2024/01/16 02:35:07;;;;;;;11.40;2.20;;;22.80;85.90;;;;;;5052866;28;20029;-80
2024/01/16 02:37:35;;;;;;;11.40;2.50;;;22.80;85.60;;;;;;5051456;28;20392;-81
2024/01/16 02:40:06;;;;;;;8.50;2.20;;;22.90;85.60;;;;;;5053107;28;20025;-80
2024/01/16 02:42:34;;;;;;;11.77;2.42;;;22.90;85.30;;;;;;5053129;28;20036;-80
2024/01/16 02:45:03;;;;;;;8.55;2.38;;;23.00;85.20;;;;;;5053136;28;20106;-80
2024/01/16 02:47:32;;;;;;;9.43;2.10;;;23.10;84.90;;;;;;5051680;28;20025;-80
2024/01/16 02:50:01;;;;;;;10.30;2.35;;;23.20;84.90;;;;;;5052580;28;20029;-80
2024/01/16 02:52:29;;;;;;;12.27;2.45;;;23.20;84.90;;;;;;5053044;28;20044;-83
2024/01/16 02:54:57;;;;;;;9.45;1.77;;;23.30;84.70;;;;;;5053078;28;20017;-81
2024/01/16 02:57:26;;;;;;;9.98;2.47;;;23.50;84.60;;;;;;5053005;28;20032;-82
2024/01/16 02:59:54;;;;;;;9.88;1.65;;;23.60;84.40;;;;;;5052550;28;20058;-81
2024/01/16 03:02:26;;;;;;;12.60;1.88;;;23.70;84.10;;;;;;5052571;28;20037;-82
2024/01/16 03:04:54;;;;;;;10.98;2.05;;;23.70;84.00;;;;;;5052248;28;20464;-80
2024/01/16 03:07:24;;;;;;;12.75;2.70;;;23.70;84.00;;;;;;5052707;28;20404;-80
2024/01/16 03:09:52;;;;;;;14.95;2.97;;;23.80;83.80;;;;;;5052471;28;20384;-82
2024/01/16 03:12:20;;;;;;;10.95;2.60;;;23.80;83.80;;;;;;5049452;28;20029;-80
2024/01/16 03:14:48;;;;;;;12.13;2.45;;;23.80;83.60;;;;;;5052595;28;20052;-81
2024/01/16 03:17:17;;;;;;;13.02;3.08;;;23.90;83.50;;;;;;5052991;28;20119;-80
2024/01/16 03:19:45;;;;;;;8.10;3.08;;;23.90;83.30;;;;;;5053105;28;20380;-80
2024/01/16 03:22:13;;;;;;;9.77;2.30;;;24.00;83.40;;;;;;5053687;28;20044;-81
2024/01/16 03:24:42;;;;;;;10.98;2.38;;;24.10;82.90;;;;;;5053036;28;20028;-82
2024/01/16 03:27:14;;;;;;;8.85;2.50;;;24.30;82.00;;;;;;5051387;28;20480;-81
2024/01/16 03:29:45;;;;;;;12.38;2.10;;;24.30;81.60;;;;;;5052302;28;20022;-80
2024/01/16 03:32:14;;;;;;;9.93;2.10;;;24.30;80.70;;;;;;5052537;28;20028;-81
2024/01/16 03:34:42;;;;;;;15.57;2.30;;;24.30;80.20;;;;;;5052089;28;20032;-80
2024/01/16 03:37:10;;;;;;;11.95;2.45;;;24.40;80.40;;;;;;5052473;28;20029;-81
2024/01/16 03:39:38;;;;;;;13.18;2.20;;;24.40;80.40;;;;;;5050655;28;20135;-81
2024/01/16 03:42:06;;;;;;;14.73;2.25;;;24.30;80.50;;;;;;5050750;28;20535;-81
2024/01/16 03:44:39;;;;;;;11.60;1.95;;;24.20;79.30;;;;;;5056468;28;20017;-80
2024/01/16 03:47:11;;;;;;;8.63;2.25;;;24.20;79.20;;;;;;5056033;28;20021;-80
2024/01/16 03:49:41;;;;;;;12.85;2.33;;;24.10;79.70;;;;;;5055993;28;20036;-81
2024/01/16 03:52:09;;;;;;;12.73;2.85;;;24.10;79.80;;;;;;5056307;28;20100;-81
2024/01/16 03:54:37;;;;;;;13.60;2.83;;;24.10;80.20;;;;;;5056159;28;20029;-81
2024/01/16 03:57:05;;;;;;;15.52;2.85;;;24.00;80.30;;;;;;5056234;28;20092;-81
2024/01/16 03:59:33;;;;;;;11.77;2.33;;;24.00;80.50;;;;;;5056002;28;20025;-81
2024/01/16 04:02:03;;;;;;;13.43;2.40;;;24.00;80.40;;;;;;5055803;28;20028;-81
2024/01/16 04:04:31;;;;;;;12.38;2.60;;;24.00;80.60;;;;;;5055910;28;20033;-81
2024/01/16 04:06:59;;;;;;;12.18;2.47;;;24.00;80.50;;;;;;5055901;28;20033;-81
2024/01/16 04:09:27;;;;;;;12.38;2.22;;;24.00;80.40;;;;;;5055908;28;20032;-81
2024/01/16 04:11:55;;;;;;;16.20;2.60;;;24.00;80.00;;;;;;5055776;28;20109;-82
2024/01/16 04:14:23;;;;;;;9.27;2.15;;;24.00;80.00;;;;;;5037684;28;20329;-82
2024/01/16 04:16:51;;;;;;;8.55;1.88;;;24.00;79.40;;;;;;5055767;28;20032;-81
2024/01/16 04:19:19;;;;;;;15.45;2.47;;;24.10;79.30;;;;;;5054404;28;20095;-81
2024/01/16 04:21:48;;;;;;;13.13;2.17;;;24.10;79.10;;;;;;5055451;28;20052;-81
2024/01/16 04:24:16;;;;;;;9.10;1.95;;;24.00;79.00;;;;;;5055730;28;20380;-81
2024/01/16 04:26:47;;;;;;;12.90;2.25;;;24.10;79.30;;;;;;5055708;28;20025;-82
2024/01/16 04:29:15;;;;;;;14.18;2.20;;;24.00;79.40;;;;;;5055575;28;20024;-82
2024/01/16 04:31:43;;;;;;;12.82;2.45;;;24.20;79.60;;;;;;5055294;28;20017;-83
2024/01/16 04:34:10;;;;;;;19.90;2.75;;;24.20;79.80;;;;;;5055212;28;20040;-81
2024/01/16 04:36:39;;;;;;;14.25;2.45;;;24.20;79.80;;;;;;5055326;28;20388;-83
2024/01/16 04:39:08;;;;;;;14.40;2.45;;;24.30;79.60;;;;;;5055530;28;20328;-81
2024/01/16 04:41:36;;;;;;;15.70;2.65;;;24.30;79.80;;;;;;5055287;28;20502;-80
2024/01/16 04:44:03;;;;;;;11.57;2.13;;;24.30;79.80;;;;;;5055047;28;20048;-82
2024/01/16 04:46:31;;;;;;;10.60;2.00;;;24.30;80.00;;;;;;5055173;28;20059;-81
2024/01/16 04:48:58;;;;;;;8.98;1.98;;;24.40;79.60;;;;;;5054959;28;20446;-81
2024/01/16 04:51:26;;;;;;;12.48;2.25;;;24.50;79.50;;;;;;5037297;28;20392;-81
2024/01/16 04:53:53;;;;;;;12.68;2.80;;;24.50;78.90;;;;;;5054543;28;20056;-81
2024/01/16 04:56:24;;;;;;;12.55;2.17;;;24.50;78.10;;;;;;5054970;28;20021;-83
2024/01/16 04:58:52;;;;;;;9.15;2.00;;;24.50;78.10;;;;;;5054957;28;20025;-81
2024/01/16 05:01:20;;;;;;;9.82;1.80;;;24.50;78.20;;;;;;5054868;28;20035;-81
2024/01/16 05:03:47;;;;;;;9.27;1.88;;;24.40;78.30;;;;;;5054587;28;20021;-81
2024/01/16 05:06:15;;;;;;;11.07;2.83;;;24.40;78.50;;;;;;5054795;28;20099;-80
2024/01/16 05:08:43;;;;;;;10.18;2.03;;;24.50;78.80;;;;;;5055112;28;20074;-81
2024/01/16 05:11:10;;;;;;;12.55;2.53;;;24.50;78.90;;;;;;5054888;28;20380;-81
2024/01/16 05:13:38;;;;;;;10.43;2.30;;;24.50;78.80;;;;;;5054673;28;20022;-81
2024/01/16 05:16:06;;;;;;;16.85;2.50;;;24.50;79.00;;;;;;5054406;28;20052;-83
2024/01/16 05:18:33;;;;;;;10.13;2.30;;;24.50;78.90;;;;;;5054586;28;20021;-81
2024/01/16 05:21:02;;;;;;;13.23;2.67;;;24.50;78.70;;;;;;5054612;28;20035;-82
2024/01/16 05:23:29;;;;;;;12.88;2.50;;;24.50;78.80;;;;;;5054687;28;20021;-80
2024/01/16 05:25:56;;;;;;;13.65;2.67;;;24.50;78.60;;;;;;5054312;28;20040;-81
2024/01/16 05:28:24;;;;;;;10.88;2.13;;;24.50;78.70;;;;;;5054329;28;20535;-81
2024/01/16 05:30:51;;;;;;;9.45;1.85;;;24.50;78.90;;;;;;5054498;28;20029;-81
2024/01/16 05:33:19;;;;;;;13.05;2.72;;;24.50;78.80;;;;;;5054595;28;20021;-81
2024/01/16 05:35:46;;;;;;;15.32;2.72;;;24.50;78.90;;;;;;5054123;28;20035;-81
2024/01/16 05:38:13;;;;;;;10.68;2.30;;;24.40;78.60;;;;;;5052936;28;20392;-83
2024/01/16 05:40:41;;;;;;;10.55;2.17;;;24.30;79.10;;;;;;5054061;28;20037;-81
2024/01/16 05:43:09;;;;;;;8.70;2.15;;;24.30;79.80;;;;;;5054202;28;20053;-81
2024/01/16 05:45:36;;;;;;;10.23;2.22;;;24.30;80.20;;;;;;5054161;28;20029;-82
2024/01/16 05:48:06;;;;;;;9.95;2.22;;;24.20;80.70;;;;;;5054067;28;20021;-81
2024/01/16 05:50:34;;;;;;;12.50;2.75;;;24.20;81.10;;;;;;5054053;28;20029;-81
2024/01/16 05:53:02;;;;;;;13.30;2.70;;;24.10;81.20;;;;;;5054244;28;20017;-82
2024/01/16 05:55:32;;;;;;;10.23;2.40;;;24.10;82.10;;;;;;5054029;28;20487;-82
2024/01/16 05:57:59;;;;;;;9.93;2.20;;;24.00;82.10;;;;;;5053582;28;20104;-80
2024/01/16 06:00:27;;;;;;;9.30;2.38;;;24.00;82.10;;;;;;5053871;28;20036;-82
2024/01/16 06:02:54;;;;;;;8.90;2.45;;;24.00;82.30;;;;;;5053883;28;20029;-82
2024/01/16 06:05:22;;;;;;;9.80;2.50;;;24.00;82.40;;;;;;5053271;28;20077;-83
2024/01/16 06:07:49;;;;;;;9.77;1.98;;;24.00;82.60;;;;;;5052730;28;20040;-81
2024/01/16 06:10:16;;;;;;;14.25;2.80;;;24.00;82.80;;;;;;5053916;28;20166;-82
2024/01/16 06:12:44;;;;;;;11.63;2.65;;;24.00;82.70;;;;;;5053745;28;20505;-81
2024/01/16 06:15:11;;;;;;;12.25;2.78;;;24.00;82.90;;;;;;5053622;28;20072;-82
2024/01/16 06:17:39;;;;;;;6.97;1.85;;;24.00;83.00;;;;;;5053671;28;20017;-82
2024/01/16 06:20:07;;;;;;;17.15;2.67;;;24.10;82.90;;;;;;5053230;28;20040;-82
2024/01/16 06:22:34;;;;;;;17.60;3.10;;;24.10;82.80;;;;;;5053456;28;20048;-80
2024/01/16 06:25:05;;;;;;;17.17;2.85;;;24.10;82.90;;;;;;5053420;28;20028;-81
2024/01/16 06:27:32;;;;;;;16.48;2.97;;;24.10;82.90;;;;;;5053636;28;20051;-81
2024/01/16 06:30:00;;;;;;;15.65;2.72;;;24.10;83.00;;;;;;5053144;28;20028;-81
2024/01/16 06:32:27;;;;;;;14.52;3.00;;;24.20;82.90;;;;;;5053334;28;20020;-84
2024/01/16 06:34:54;;;;;;;14.00;2.58;;;24.20;82.80;;;;;;5053006;28;20021;-81
2024/01/16 06:37:22;;;;;;;12.05;2.63;;;24.20;82.90;;;;;;5053227;28;20083;-82
2024/01/16 06:39:49;;;;;;;20.63;2.58;;;24.20;82.80;;;;;;5052857;28;20120;-81
2024/01/16 06:42:16;;;;;;;12.85;2.80;;;24.20;82.80;;;;;;5052966;28;20041;-81
2024/01/16 06:44:44;;;;;;;16.25;3.05;;;24.20;82.70;;;;;;5053196;28;20423;-84
2024/01/16 06:47:11;;;;;;;11.48;2.55;;;24.20;82.80;;;;;;5053119;28;20048;-81
2024/01/16 06:49:39;;;;;;;15.98;3.17;;;24.20;82.80;;;;;;5052907;28;20495;-81
2024/01/16 06:52:07;;;;;;;16.55;3.13;;;24.20;82.80;;;;;;5052858;28;20492;-82
2024/01/16 06:54:35;;;;;;;16.13;2.75;;;24.20;82.80;;;;;;5053048;28;20021;-81
2024/01/16 06:57:02;;;;;;;12.52;2.60;;;24.20;82.90;;;;;;5052963;28;20104;-81
2024/01/16 06:59:30;;;;;;;13.25;2.65;;;24.30;82.70;;;;;;5052865;28;20443;-81
2024/01/16 07:02:00;;;;;;;9.15;2.30;;;24.30;82.80;;;;;;5052579;28;20113;-81
2024/01/16 07:04:28;;;;;;;20.02;3.13;;;24.30;82.70;;;;;;5052699;28;20116;-82
2024/01/16 07:06:55;;;;;;;17.25;3.33;;;24.30;82.70;;;;;;5052752;28;20028;-84
2024/01/16 07:09:23;;;;;;;12.50;2.60;;;24.30;82.50;;;;;;5052743;28;20479;-81
2024/01/16 07:11:50;;;;;;;22.08;3.80;;;24.40;82.40;;;;;;5052499;28;20059;-81
2024/01/16 07:14:17;;;;;;;21.20;3.70;;;24.40;82.40;;;;;;5052508;28;20388;-81
2024/01/16 07:16:45;;;;;;;16.88;2.78;;;24.50;82.20;;;;;;5052616;28;20036;-82
2024/01/16 07:19:12;;;;;;;14.25;3.22;;;24.50;81.80;;;;;;5052241;28;20028;-82
2024/01/16 07:21:40;;;;;;;16.48;2.95;;;24.50;81.40;;;;;;5052421;28;20529;-82
2024/01/16 07:24:07;;;;;;;20.73;3.40;;;24.50;81.40;;;;;;5052484;28;20029;-81
2024/01/16 07:26:35;;;;;;;21.10;3.28;;;24.50;81.30;;;;;;5052567;28;20025;-82
2024/01/16 07:29:02;;;;;;;19.85;3.58;;;24.50;81.40;;;;;;5052545;28;20390;-82
2024/01/16 07:31:29;;;;;;;13.63;3.10;;;24.40;81.10;;;;;;5034889;28;20357;-81
2024/01/16 07:33:57;;;;;;;21.08;3.30;;;24.40;80.90;;;;;;5052109;28;20029;-84
2024/01/16 07:36:24;;;;;;;16.05;3.15;;;24.40;80.80;;;;;;5052513;28;20056;-82
2024/01/16 07:38:51;;;;;;;18.08;3.30;;;24.30;80.50;;;;;;5052361;28;20017;-83
2024/01/16 07:41:19;;;;;;;17.23;3.30;;;24.30;80.70;;;;;;5052229;28;20037;-83
2024/01/16 07:43:46;;;;;;;17.90;3.03;;;24.30;80.70;;;;;;5052220;28;20027;-81
2024/01/16 07:46:13;;;;;;;18.05;3.53;;;24.30;80.30;;;;;;5052372;28;20024;-82
2024/01/16 07:48:41;;;;;;;14.98;2.63;;;24.30;80.50;;;;;;5052123;28;20427;-81
2024/01/16 07:51:08;;;;;;;15.98;3.80;;;24.30;80.50;;;;;;5052303;28;20052;-81
2024/01/16 07:53:36;;;;;;;20.52;3.60;;;24.20;80.60;;;;;;5052265;28;20029;-82
2024/01/16 07:56:04;;;;;;;19.25;3.47;;;24.30;80.80;;;;;;5051951;28;20028;-81
2024/01/16 07:58:32;;;;;;;15.20;3.30;;;24.20;80.60;;;;;;5052254;28;20086;-81
2024/01/16 08:00:59;;;;;;;19.35;3.67;;;24.20;80.60;;;;;;5052154;28;20029;-82
2024/01/16 08:03:26;;;;;;;14.27;3.50;;;24.20;80.80;;;;;;5052084;28;20543;-82
2024/01/16 08:05:54;;;;;;;11.02;2.72;;;24.20;80.90;;;;;;5051914;28;20029;-81
2024/01/16 08:08:21;;;;;;;17.30;3.65;;;24.20;81.00;;;;;;5052154;28;20064;-81
2024/01/16 08:10:48;;;;;;;22.80;3.75;;;24.20;81.10;;;;;;5052026;28;20028;-82
2024/01/16 08:13:16;;;;;;;21.65;3.33;;;24.20;81.10;;;;;;5052110;28;20487;-82
2024/01/16 08:15:43;;;;;;;21.40;3.92;;;24.20;80.90;;;;;;5051625;28;20103;-82
2024/01/16 08:18:17;;;;;;;15.43;3.33;;;24.20;80.90;;;;;;5051897;28;20037;-83
2024/01/16 08:20:44;;;;;;;18.00;3.15;;;24.20;80.90;;;;;;5052055;28;20037;-82
2024/01/16 08:23:12;;;;;;;15.07;3.40;;;24.20;81.00;;;;;;5051995;28;20022;-82
2024/01/16 08:25:39;;;;;;;16.15;3.22;;;24.20;81.00;;;;;;5052058;28;20064;-82
2024/01/16 08:28:07;;;;;;;19.35;3.80;;;24.20;80.90;;;;;;5051995;28;20028;-83
2024/01/16 08:30:34;;;;;;;10.18;2.85;;;24.20;80.80;;;;;;5054164;28;20029;-82
2024/01/16 08:33:01;;;;;;;21.52;3.38;;;24.10;80.90;;;;;;5055440;28;20468;-81
2024/01/16 08:35:29;;;;;;;17.20;3.45;;;24.10;81.20;;;;;;5055587;28;20468;-82
2024/01/16 08:37:56;;;;;;;9.80;2.60;;;24.10;81.20;;;;;;5054689;28;20032;-82
2024/01/16 08:40:26;;;;;;;15.18;3.35;;;24.10;80.90;;;;;;5055081;28;20029;-82
2024/01/16 08:42:54;;;;;;;17.45;2.92;;;24.00;81.10;;;;;;5054958;28;20118;-82
2024/01/16 08:45:23;;;;;;;23.02;3.60;;;24.00;81.10;;;;;;5053624;28;20044;-82
2024/01/16 08:47:50;;;;;;;17.75;3.22;;;24.10;81.10;;;;;;5054612;28;20017;-81
2024/01/16 08:50:17;;;;;;;16.52;3.10;;;24.10;80.80;;;;;;5054918;28;20027;-82
2024/01/16 08:52:45;;;;;;;13.30;2.70;;;24.00;80.70;;;;;;5054858;28;20079;-83
2024/01/16 08:55:12;;;;;;;15.10;3.50;;;24.00;80.60;;;;;;5054687;28;20395;-82
2024/01/16 08:57:39;;;;;;;12.77;2.90;;;24.00;80.90;;;;;;5054721;28;20373;-79
2024/01/16 09:00:08;;;;;;;16.40;3.22;;;24.00;80.80;;;;;;5054667;28;20039;-82
2024/01/16 09:02:36;;;;;;;12.73;2.97;;;24.00;80.90;;;;;;5054617;28;20480;-82
2024/01/16 09:05:05;;;;;;;16.48;3.03;;;23.90;81.00;;;;;;5054563;28;20021;-82
2024/01/16 09:07:32;;;;;;;15.70;3.22;;;23.90;81.10;;;;;;5054725;28;20071;-82
2024/01/16 09:09:59;;;;;;;13.05;2.67;;;23.90;81.20;;;;;;5054451;28;20472;-82
2024/01/16 09:12:27;;;;;;;19.25;3.63;;;23.90;81.20;;;;;;5054481;28;20660;-82
2024/01/16 09:14:54;;;;;;;17.23;2.97;;;23.90;81.00;;;;;;5054339;28;20058;-83
2024/01/16 09:17:22;;;;;;;16.70;3.17;;;23.80;81.20;;;;;;5054311;28;20491;-85
2024/01/16 09:19:49;;;;;;;14.18;3.05;;;23.80;81.40;;;;;;5054118;28;20025;-82
2024/01/16 09:22:16;;;;;;;24.15;3.55;;;23.90;81.20;;;;;;5054437;28;20036;-81
2024/01/16 09:24:44;;;;;;;13.43;3.05;;;23.90;81.20;;;;;;5054419;28;20105;-81
2024/01/16 09:27:12;;;;;;;15.70;3.47;;;23.80;81.20;;;;;;5054258;28;20060;-82
2024/01/16 09:29:39;;;;;;;14.80;3.33;;;23.80;81.40;;;;;;5054140;28;20017;-82
2024/01/16 09:32:07;;;;;;;18.27;3.28;;;23.80;81.30;;;;;;5054109;28;20029;-82
2024/01/16 09:34:34;;;;;;;18.40;3.28;;;23.80;81.40;;;;;;5054162;28;20025;-83
2024/01/16 09:37:02;;;;;;;17.92;2.92;;;23.80;81.60;;;;;;5054079;28;20025;-82
2024/01/16 09:39:31;;;;;;;11.88;2.75;;;23.80;81.40;;;;;;5054058;28;20021;-82
2024/01/16 09:42:04;;;;;;;15.43;3.15;;;23.80;81.60;;;;;;5053370;28;20048;-82
2024/01/16 09:44:32;;;;;;;16.63;3.38;;;23.80;81.60;;;;;;5053863;28;20025;-82
2024/01/16 09:47:01;;;;;;;12.65;2.95;;;23.80;81.70;;;;;;5053927;28;20372;-83
2024/01/16 09:49:29;;;;;;;17.25;3.47;;;23.80;81.70;;;;;;5053577;28;20086;-80
2024/01/16 09:52:01;;;;;;;15.02;3.00;;;23.80;81.70;;;;;;5053600;28;20029;-81
2024/01/16 09:54:29;;;;;;;14.85;2.67;;;23.70;81.80;;;;;;5053790;28;20053;-81
2024/01/16 09:57:01;;;;;;;22.77;4.13;;;23.70;81.90;;;;;;5053624;28;20048;-82
2024/01/16 09:59:31;;;;;;;16.67;3.65;;;23.70;81.80;;;;;;5053850;28;20020;-81
2024/01/16 10:02:00;;;;;;;17.15;3.35;;;23.70;81.80;;;;;;5053385;28;20115;-81
2024/01/16 10:04:28;;;;;;;13.95;2.85;;;23.70;81.70;;;;;;5054399;28;20104;-81
2024/01/16 10:06:57;;;;;;;13.35;3.40;;;23.70;81.80;;;;;;5054727;28;20025;-81
2024/01/16 10:09:25;;;;;;;14.98;2.83;;;23.70;81.70;;;;;;5055265;28;20017;-81
2024/01/16 10:11:53;;;;;;;18.13;2.85;;;23.70;81.70;;;;;;5054313;28;20051;-81
2024/01/16 10:14:21;;;;;;;14.38;3.10;;;23.70;81.50;;;;;;5053435;28;20021;-83
2024/01/16 10:17:38;;;;;;;12.70;2.78;;;23.70;81.60;;;;;;5053536;28;20468;-81
2024/01/16 10:20:02;;;;;;;19.45;3.28;;;23.70;81.60;;;;;;5050773;28;20037;-81
2024/01/16 10:22:29;;;;;;;15.45;3.20;;;23.70;81.10;;;;;;5053241;28;20036;-81
2024/01/16 10:25:16;;;;;;;11.23;2.97;;;23.70;81.20;;;;;;5053298;28;20078;-80
2024/01/16 10:27:44;;;;;;;13.18;3.30;;;23.70;81.10;;;;;;5053133;28;20028;-80
2024/01/16 10:30:12;;;;;;;16.05;3.25;;;23.70;81.20;;;;;;5053238;28;20024;-81
2024/01/16 10:32:43;;;;;;;10.77;3.13;;;23.60;81.30;;;;;;5052999;28;20021;-81
2024/01/16 10:35:14;;;;;;;14.07;3.38;;;23.70;81.60;;;;;;5053186;28;20029;-81
2024/01/16 10:37:50;;;;;;;16.67;3.10;;;23.70;81.40;;;;;;5053110;28;20017;-83
2024/01/16 10:40:21;;;;;;;16.52;3.40;;;23.60;81.40;;;;;;5052886;28;20491;-82
2024/01/16 10:43:05;;;;;;;14.85;2.95;;;23.60;81.50;;;;;;5035026;28;20029;-81
2024/01/16 10:45:34;;;;;;;14.07;3.03;;;23.70;81.50;;;;;;5034971;28;20024;-82
2024/01/16 10:48:08;;;;;;;15.13;3.28;;;23.70;81.20;;;;;;5051264;28;20078;-81
2024/01/16 10:50:37;;;;;;;13.27;2.70;;;23.60;81.30;;;;;;5052584;28;20035;-81
2024/01/16 10:53:07;;;;;;;18.15;2.72;;;23.60;81.50;;;;;;5034235;28;20021;-82
2024/01/16 10:55:53;;;;;;;13.00;2.83;;;23.60;81.50;;;;;;5034780;28;20043;-81
2024/01/16 10:58:25;;;;;;;15.52;2.88;;;23.60;81.60;;;;;;5034726;28;20491;-82
2024/01/16 11:01:01;;;;;;;24.00;3.65;;;23.60;81.60;;;;;;5052375;28;20037;-83
2024/01/16 11:03:43;;;;;;;17.38;3.40;;;23.60;81.70;;;;;;5052459;28;20353;-82
2024/01/16 11:06:11;;;;;;;12.18;2.72;;;23.60;81.70;;;;;;5052265;28;20027;-80
2024/01/16 11:08:39;;;;;;;15.88;3.35;;;23.60;81.60;;;;;;5052315;28;20033;-81
2024/01/16 11:11:07;;;;;;;20.85;3.63;;;23.60;81.70;;;;;;5052389;28;20356;-81
2024/01/16 11:13:36;;;;;;;12.13;2.67;;;23.60;81.70;;;;;;5052456;28;20021;-81
2024/01/16 11:16:04;;;;;;;16.20;3.30;;;23.60;81.70;;;;;;5051968;28;20077;-82
2024/01/16 11:18:34;;;;;;;11.85;3.00;;;23.60;81.80;;;;;;5052207;28;20044;-81
2024/01/16 11:21:14;;;;;;;21.40;3.35;;;23.60;81.90;;;;;;5052073;28;20473;-81
2024/01/16 11:23:41;;;;;;;11.30;2.67;;;23.60;82.20;;;;;;5052309;28;20357;-81
2024/01/16 11:26:32;;;;;;;16.25;2.85;;;23.60;82.10;;;;;;5052160;28;20487;-82
2024/01/16 11:29:01;;;;;;;15.93;2.90;;;23.60;82.10;;;;;;5052346;28;20052;-81
2024/01/16 11:31:35;;;;;;;18.08;3.20;;;23.70;81.90;;;;;;5052250;28;20043;-81
2024/01/16 11:34:03;;;;;;;21.73;3.95;;;23.70;82.10;;;;;;5051958;28;20043;-81
2024/01/16 11:36:54;;;;;;;18.40;3.00;;;23.70;82.10;;;;;;5052226;28;20021;-81
2024/01/16 11:39:26;;;;;;;17.75;3.38;;;23.70;82.20;;;;;;5052054;28;20025;-82
2024/01/16 11:41:58;;;;;;;16.65;3.42;;;23.70;82.30;;;;;;5033957;28;20128;-82
2024/01/16 11:44:46;;;;;;;21.90;3.67;;;23.70;82.40;;;;;;5052098;28;20021;-82
2024/01/16 11:47:21;;;;;;;18.50;3.45;;;23.70;82.50;;;;;;5052009;28;20021;-82
2024/01/16 11:49:51;;;;;;;18.35;3.10;;;23.70;82.50;;;;;;5034231;28;20079;-82
2024/01/16 11:52:45;;;;;;;22.48;3.47;;;23.70;82.70;;;;;;5051987;28;20179;-81
2024/01/16 11:55:33;;;;;;;17.75;3.22;;;23.70;82.70;;;;;;5049886;28;20039;-82
2024/01/16 11:58:21;;;;;;;21.65;3.65;;;23.70;82.60;;;;;;5033866;28;20057;-82
2024/01/16 12:00:53;;;;;;;19.08;2.95;;;23.70;82.90;;;;;;5051869;28;20033;-81
2024/01/16 12:03:24;;;;;;;15.77;2.95;;;23.70;83.00;;;;;;5051676;28;20021;-81
2024/01/16 12:05:59;;;;;;;22.55;3.80;;;23.70;83.30;;;;;;5054617;28;20024;-81
2024/01/16 12:08:28;;;;;;;14.38;3.35;;;23.70;83.30;;;;;;5055899;28;20159;-81
2024/01/16 12:10:55;;;;;;;18.25;3.42;;;23.60;83.20;;;;;;5056133;28;20017;-81
2024/01/16 12:13:23;;;;;;;24.63;3.78;;;23.60;83.30;;;;;;5053951;28;20387;-85
2024/01/16 12:16:00;;;;;;;26.55;4.10;;;23.60;83.30;;;;;;5055676;28;20507;-82
2024/01/16 12:18:28;;;;;;;22.05;4.22;;;23.60;83.40;;;;;;5055853;28;20027;-81
2024/01/16 12:20:55;;;;;;;19.25;3.40;;;23.60;83.50;;;;;;5054474;28;20033;-82
2024/01/16 12:23:23;;;;;;;23.95;4.07;;;23.60;83.50;;;;;;5055809;28;20100;-81
2024/01/16 12:26:01;;;;;;;16.10;3.03;;;23.60;83.90;;;;;;5055609;28;20029;-81
2024/01/16 12:28:28;;;;;;;15.75;3.30;;;23.60;83.50;;;;;;5055757;28;20013;-81
2024/01/16 12:30:56;;;;;;;21.58;4.03;;;23.60;83.60;;;;;;5055813;28;20059;-81
2024/01/16 12:33:24;;;;;;;20.42;3.53;;;23.60;83.70;;;;;;5055396;28;20021;-81
2024/01/16 12:36:01;;;;;;;21.60;3.83;;;23.60;83.80;;;;;;5055416;28;20484;-81
2024/01/16 12:38:28;;;;;;;11.40;2.63;;;23.60;83.80;;;;;;5054225;28;20071;-81
2024/01/16 12:40:56;;;;;;;17.55;3.10;;;23.60;83.80;;;;;;5055377;28;20059;-80
2024/01/16 12:43:23;;;;;;;16.60;3.15;;;23.60;84.10;;;;;;5055625;28;20027;-81
2024/01/16 12:45:58;;;;;;;20.52;3.25;;;23.60;83.80;;;;;;5055059;28;20036;-83
2024/01/16 12:48:27;;;;;;;17.67;3.45;;;23.70;84.00;;;;;;5055260;28;20028;-80